createdAt,value
2023-04-21T00:00:56.906Z,28.0945
2023-04-21T00:02:00.835Z,28.0666
2023-04-21T00:03:05.078Z,28.0554
2023-04-21T00:04:09.073Z,28.1080
2023-04-21T00:05:13.579Z,28.1022
2023-04-21T00:06:17.496Z,28.0568
2023-04-21T00:07:21.401Z,28.1277
2023-04-21T00:08:25.289Z,28.1011
2023-04-21T00:09:29.179Z,28.0830
2023-04-21T00:10:33.070Z,28.0487
2023-04-21T00:11:36.968Z,28.0600
2023-04-21T00:12:37.313Z,28.0071
2023-04-21T00:13:41.190Z,28.0556
2023-04-21T00:14:45.091Z,28.1166
2023-04-21T00:15:49.040Z,28.0689
2023-04-21T00:16:52.919Z,28.0927
2023-04-21T00:17:56.848Z,28.0961
2023-04-21T00:19:00.735Z,28.0921
2023-04-21T00:20:04.889Z,28.1160
2023-04-21T00:21:08.793Z,28.1532
2023-04-21T00:22:12.707Z,28.1461
2023-04-21T00:23:16.582Z,28.1156
2023-04-21T00:24:20.475Z,28.0718
2023-04-21T00:25:24.380Z,28.0964
2023-04-21T00:26:28.291Z,28.0492
2023-04-21T00:27:32.181Z,28.0809
2023-04-21T00:28:36.061Z,28.1344
2023-04-21T00:29:39.937Z,28.1306
2023-04-21T00:30:44.123Z,28.1399
2023-04-21T00:31:48.134Z,28.1770
2023-04-21T00:32:52.072Z,28.1544
2023-04-21T00:33:55.943Z,28.1423
2023-04-21T00:34:59.827Z,28.1254
2023-04-21T00:36:03.683Z,28.1420
2023-04-21T00:37:07.561Z,28.0643
2023-04-21T00:38:11.430Z,28.1171
2023-04-21T00:39:15.298Z,28.1425
2023-04-21T00:40:19.183Z,28.1642
2023-04-21T00:41:23.078Z,28.1696
2023-04-21T00:42:26.952Z,28.1624
2023-04-21T00:43:30.809Z,28.0937
2023-04-21T00:44:34.716Z,28.1649
2023-04-21T00:45:38.607Z,28.1607
2023-04-21T00:46:42.545Z,28.1459
2023-04-21T00:47:46.409Z,28.1773
2023-04-21T00:48:50.306Z,28.1779
2023-04-21T00:49:54.440Z,28.1980
2023-04-21T00:50:58.347Z,28.2083
2023-04-21T00:52:02.491Z,28.2112
2023-04-21T00:53:06.405Z,28.1850
2023-04-21T00:54:10.311Z,28.1410
2023-04-21T00:55:14.206Z,28.1492
2023-04-21T00:56:18.086Z,28.1593
2023-04-21T00:57:22.019Z,28.1635
2023-04-21T00:58:25.910Z,28.1602
2023-04-21T00:59:29.811Z,28.1528
2023-04-21T01:00:33.764Z,28.1596
2023-04-21T01:01:37.685Z,28.1422
2023-04-21T01:02:41.651Z,28.1175
2023-04-21T01:03:45.810Z,28.1682
2023-04-21T01:04:49.820Z,28.1982
2023-04-21T01:05:53.730Z,28.1570
2023-04-21T01:06:57.665Z,28.1839
2023-04-21T01:08:01.550Z,28.1902
2023-04-21T01:09:05.480Z,28.1961
2023-04-21T01:10:09.376Z,28.1902
2023-04-21T01:11:13.283Z,28.1834
2023-04-21T01:12:17.182Z,28.1999
2023-04-21T01:13:21.086Z,28.2158
2023-04-21T01:14:24.976Z,28.2281
2023-04-21T01:15:28.865Z,28.2530
2023-04-21T01:16:32.828Z,28.1999
2023-04-21T01:17:37.034Z,28.2359
2023-04-21T01:18:40.904Z,28.1848
2023-04-21T01:19:45.139Z,28.1639
2023-04-21T01:20:49.033Z,28.2346
2023-04-21T01:21:52.932Z,28.2459
2023-04-21T01:22:56.808Z,28.1966
2023-04-21T01:24:00.720Z,28.1905
2023-04-21T01:25:04.604Z,28.2144
2023-04-21T01:26:08.516Z,28.2286
2023-04-21T01:27:12.700Z,28.2027
2023-04-21T01:28:16.581Z,28.1876
2023-04-21T01:29:20.608Z,28.2005
2023-04-21T01:30:24.774Z,28.2160
2023-04-21T01:31:28.683Z,28.2049
2023-04-21T01:32:32.738Z,28.2373
2023-04-21T01:33:36.736Z,28.2049
2023-04-21T01:34:40.656Z,28.2429
2023-04-21T01:35:44.544Z,28.1993
2023-04-21T01:36:48.449Z,28.2111
2023-04-21T01:37:52.534Z,28.1790
2023-04-21T01:38:56.435Z,28.2104
2023-04-21T01:40:00.334Z,28.1920
2023-04-21T01:41:04.214Z,28.1926
2023-04-21T01:42:08.273Z,28.1827
2023-04-21T01:43:12.136Z,28.1751
2023-04-21T01:44:16.046Z,28.1986
2023-04-21T01:45:16.526Z,28.1637
2023-04-21T01:46:20.448Z,28.1857
2023-04-21T01:47:24.300Z,28.1953
2023-04-21T01:48:28.195Z,28.2036
2023-04-21T01:49:32.093Z,28.1989
2023-04-21T01:50:35.981Z,28.1971
2023-04-21T01:51:39.870Z,28.2135
2023-04-21T01:52:43.771Z,28.2074
2023-04-21T01:53:47.669Z,28.2454
2023-04-21T01:54:51.546Z,28.2033
2023-04-21T01:55:55.465Z,28.2087
2023-04-21T01:56:59.388Z,28.1971
2023-04-21T01:58:03.523Z,28.1910
2023-04-21T01:59:07.410Z,28.1603
2023-04-21T02:00:11.559Z,28.1530
2023-04-21T02:01:15.482Z,28.1876
2023-04-21T02:02:19.423Z,28.1776
2023-04-21T02:03:23.404Z,28.1593
2023-04-21T02:04:27.570Z,28.1695
2023-04-21T02:05:28.014Z,28.1674
2023-04-21T02:06:31.886Z,28.1888
2023-04-21T02:07:35.778Z,28.1839
2023-04-21T02:08:39.694Z,28.1905
2023-04-21T02:09:43.588Z,28.2190
2023-04-21T02:10:47.639Z,28.2321
2023-04-21T02:11:51.528Z,28.1826
2023-04-21T02:12:55.493Z,28.2043
2023-04-21T02:13:59.418Z,28.2202
2023-04-21T02:15:03.570Z,28.2000
2023-04-21T02:16:13.347Z,28.2153
2023-04-21T02:17:11.968Z,28.2143
2023-04-21T02:18:15.892Z,28.2087
2023-04-21T02:19:19.915Z,28.1778
2023-04-21T02:20:23.903Z,28.2171
2023-04-21T02:21:27.823Z,28.2057
2023-04-21T02:22:31.705Z,28.1560
2023-04-21T02:23:35.644Z,28.1892
2023-04-21T02:24:39.553Z,28.2033
2023-04-21T02:25:43.457Z,28.1907
2023-04-21T02:26:47.366Z,28.1512
2023-04-21T02:27:51.258Z,28.1666
2023-04-21T02:28:55.148Z,28.1682
2023-04-21T02:29:59.055Z,28.1928
2023-04-21T02:31:02.993Z,28.2014
2023-04-21T02:33:09.201Z,28.1225
2023-04-21T02:34:13.100Z,28.1837
2023-04-21T02:35:16.969Z,28.1940
2023-04-21T02:36:20.873Z,28.1933
2023-04-21T02:37:24.765Z,28.2122
2023-04-21T02:38:28.693Z,28.2160
2023-04-21T02:39:32.621Z,28.1773
2023-04-21T02:40:36.487Z,28.2046
2023-04-21T02:41:40.371Z,28.1610
2023-04-21T02:42:44.518Z,28.1780
2023-04-21T02:43:48.435Z,28.1750
2023-04-21T02:44:52.574Z,28.1633
2023-04-21T02:45:56.474Z,28.1843
2023-04-21T02:47:00.500Z,28.2004
2023-04-21T02:48:04.599Z,28.1612
2023-04-21T02:49:08.464Z,28.1600
2023-04-21T02:50:12.369Z,28.1617
2023-04-21T02:51:16.258Z,28.1699
2023-04-21T02:52:20.145Z,28.1792
2023-04-21T02:53:24.078Z,28.1885
2023-04-21T02:54:27.956Z,28.1554
2023-04-21T02:55:31.870Z,28.1581
2023-04-21T02:56:35.759Z,28.1509
2023-04-21T02:57:39.659Z,28.1797
2023-04-21T02:58:43.542Z,28.1722
2023-04-21T02:59:47.696Z,28.1887
2023-04-21T03:00:51.760Z,28.1869
2023-04-21T03:01:55.638Z,28.1704
2023-04-21T03:02:59.700Z,28.1966
2023-04-21T03:04:03.712Z,28.2232
2023-04-21T03:05:07.636Z,28.2163
2023-04-21T03:06:11.500Z,28.2059
2023-04-21T03:07:16.123Z,28.2083
2023-04-21T03:08:20.017Z,28.1747
2023-04-21T03:09:23.888Z,28.1785
2023-04-21T03:10:27.793Z,28.1728
2023-04-21T03:11:31.663Z,28.2191
2023-04-21T03:12:35.605Z,28.1848
2023-04-21T03:13:39.488Z,28.3433
2023-04-21T03:14:43.394Z,28.2921
2023-04-21T03:15:47.306Z,28.2892
2023-04-21T03:16:51.252Z,28.2613
2023-04-21T03:17:55.514Z,28.3120
2023-04-21T03:18:59.424Z,28.3708
2023-04-21T03:20:03.584Z,28.4087
2023-04-21T03:21:07.476Z,28.3730
2023-04-21T03:22:11.362Z,28.4083
2023-04-21T03:23:15.237Z,28.3632
2023-04-21T03:24:19.127Z,28.3723
2023-04-21T03:25:23.044Z,28.3888
2023-04-21T03:26:26.965Z,28.3562
2023-04-21T03:27:31.096Z,28.3694
2023-04-21T03:28:35.019Z,28.3662
2023-04-21T03:29:39.134Z,28.3379
2023-04-21T03:30:43.036Z,28.3562
2023-04-21T03:31:46.984Z,28.3543
2023-04-21T03:32:50.878Z,28.3702
2023-04-21T03:33:54.734Z,28.3862
2023-04-21T03:34:58.623Z,28.3389
2023-04-21T03:36:02.484Z,28.3386
2023-04-21T03:37:06.369Z,28.3497
2023-04-21T03:38:10.241Z,28.3100
2023-04-21T03:40:17.584Z,28.3557
2023-04-21T03:41:21.466Z,28.2960
2023-04-21T03:42:25.346Z,28.3104
2023-04-21T03:43:29.245Z,28.3259
2023-04-21T03:44:33.146Z,28.3466
2023-04-21T03:45:37.047Z,28.3159
2023-04-21T03:46:40.940Z,28.3033
2023-04-21T03:47:44.837Z,28.2900
2023-04-21T03:48:48.745Z,28.2855
2023-04-21T03:49:52.623Z,28.2761
2023-04-21T03:50:56.524Z,28.2552
2023-04-21T03:52:00.408Z,28.2080
2023-04-21T03:53:04.314Z,28.2435
2023-04-21T03:54:08.238Z,28.2092
2023-04-21T03:55:12.176Z,28.2139
2023-04-21T03:56:16.049Z,28.2809
2023-04-21T03:57:19.937Z,28.2556
2023-04-21T03:58:23.817Z,28.2352
2023-04-21T03:59:27.727Z,28.2504
2023-04-21T04:00:31.617Z,28.1986
2023-04-21T04:01:35.558Z,28.2069
2023-04-21T04:02:39.553Z,28.2630
2023-04-21T04:03:43.581Z,28.2742
2023-04-21T04:04:47.851Z,28.2005
2023-04-21T04:05:51.773Z,28.1886
2023-04-21T04:06:56.208Z,28.1579
2023-04-21T04:08:00.347Z,28.1871
2023-04-21T04:09:04.255Z,28.1645
2023-04-21T04:10:08.385Z,28.0946
2023-04-21T04:11:12.292Z,28.0732
2023-04-21T04:12:16.187Z,28.1433
2023-04-21T04:13:20.065Z,28.0680
2023-04-21T04:14:23.939Z,28.0748
2023-04-21T04:15:27.846Z,28.0214
2023-04-21T04:16:31.792Z,27.8525
2023-04-21T04:17:35.723Z,27.7452
2023-04-21T04:18:39.803Z,27.6232
2023-04-21T04:19:43.735Z,27.5130
2023-04-21T04:20:47.605Z,27.3858
2023-04-21T04:21:51.526Z,27.0983
2023-04-21T04:22:55.639Z,26.9477
2023-04-21T04:23:59.551Z,26.8130
2023-04-21T04:25:03.467Z,26.7852
2023-04-21T04:26:07.348Z,26.8241
2023-04-21T04:27:11.245Z,26.8917
2023-04-21T04:28:15.132Z,26.9801
2023-04-21T04:29:19.269Z,27.0540
2023-04-21T04:30:23.469Z,27.0537
2023-04-21T04:31:27.413Z,27.0705
2023-04-21T04:32:31.633Z,27.0142
2023-04-21T04:33:35.486Z,27.0871
2023-04-21T04:34:39.394Z,27.1474
2023-04-21T04:35:43.322Z,27.1641
2023-04-21T04:36:47.236Z,27.2174
2023-04-21T04:37:51.117Z,27.2900
2023-04-21T04:38:54.992Z,27.2368
2023-04-21T04:39:58.868Z,27.2296
2023-04-21T04:41:02.773Z,27.2299
2023-04-21T04:42:06.680Z,27.2368
2023-04-21T04:43:10.620Z,27.3074
2023-04-21T04:44:14.524Z,27.2525
2023-04-21T04:45:18.424Z,27.2463
2023-04-21T04:46:22.425Z,27.1856
2023-04-21T04:47:26.399Z,27.2560
2023-04-21T04:48:30.346Z,27.2860
2023-04-21T04:49:34.229Z,27.2766
2023-04-21T04:50:38.140Z,27.2082
2023-04-21T04:51:42.037Z,27.2322
2023-04-21T04:52:45.907Z,27.2224
2023-04-21T04:53:49.781Z,27.2535
2023-04-21T04:54:53.674Z,27.2036
2023-04-21T04:55:57.576Z,27.2072
2023-04-21T04:57:01.480Z,27.2078
2023-04-21T04:58:05.395Z,27.1898
2023-04-21T04:59:09.257Z,27.1768
2023-04-21T05:00:13.410Z,27.2418
2023-04-21T05:01:17.638Z,27.2078
2023-04-21T05:02:21.713Z,27.2146
2023-04-21T05:03:25.887Z,27.2650
2023-04-21T05:04:30.219Z,27.2485
2023-04-21T05:05:34.162Z,27.2564
2023-04-21T05:06:38.045Z,27.2734
2023-04-21T05:07:41.932Z,27.2634
2023-04-21T05:08:45.857Z,27.3098
2023-04-21T05:09:49.746Z,27.3202
2023-04-21T05:10:53.639Z,27.2558
2023-04-21T05:11:57.528Z,27.2882
2023-04-21T05:13:01.567Z,27.3537
2023-04-21T05:14:05.482Z,27.3156
2023-04-21T05:15:09.715Z,27.2987
2023-04-21T05:16:13.635Z,27.3299
2023-04-21T05:17:17.498Z,27.3370
2023-04-21T05:18:21.425Z,27.2954
2023-04-21T05:19:25.329Z,27.2978
2023-04-21T05:20:29.219Z,27.3206
2023-04-21T05:21:33.099Z,27.4928
2023-04-21T05:22:36.994Z,27.4348
2023-04-21T05:23:40.919Z,27.4634
2023-04-21T05:24:45.065Z,27.3212
2023-04-21T05:25:48.999Z,27.3538
2023-04-21T05:26:53.170Z,27.3622
2023-04-21T05:27:57.043Z,27.3708
2023-04-21T05:29:00.958Z,27.3996
2023-04-21T05:30:04.839Z,27.3862
2023-04-21T05:31:08.758Z,27.3839
2023-04-21T05:32:12.691Z,27.3769
2023-04-21T05:33:16.575Z,27.4010
2023-04-21T05:34:20.587Z,27.4532
2023-04-21T05:35:24.543Z,27.4071
2023-04-21T05:36:28.426Z,27.4043
2023-04-21T05:37:32.803Z,27.4672
2023-04-21T05:38:36.705Z,27.5246
2023-04-21T05:39:40.602Z,27.5462
2023-04-21T05:40:44.517Z,27.5087
2023-04-21T05:41:48.391Z,27.4480
2023-04-21T05:42:52.530Z,27.4259
2023-04-21T05:43:56.425Z,27.4461
2023-04-21T05:44:56.888Z,27.4325
2023-04-21T05:46:00.815Z,27.4701
2023-04-21T05:47:04.695Z,27.5759
2023-04-21T05:48:08.628Z,27.4461
2023-04-21T05:49:12.482Z,27.4815
2023-04-21T05:50:16.372Z,27.4616
2023-04-21T05:51:20.241Z,27.4985
2023-04-21T05:52:24.130Z,27.4768
2023-04-21T05:53:28.026Z,27.4797
2023-04-21T05:54:31.926Z,27.4672
2023-04-21T05:55:35.828Z,27.4837
2023-04-21T05:56:39.716Z,27.4901
2023-04-21T05:57:43.609Z,27.5485
2023-04-21T05:58:47.540Z,27.4957
2023-04-21T05:59:51.404Z,27.5139
2023-04-21T06:00:55.324Z,27.5149
2023-04-21T06:01:59.208Z,27.5136
2023-04-21T06:03:03.158Z,27.4906
2023-04-21T06:04:07.303Z,27.5005
2023-04-21T06:05:11.493Z,27.5073
2023-04-21T06:06:15.417Z,27.5178
2023-04-21T06:07:19.326Z,27.4748
2023-04-21T06:08:23.210Z,27.5452
2023-04-21T06:09:27.095Z,27.6573
2023-04-21T06:10:31.011Z,27.5321
2023-04-21T06:11:34.968Z,27.4728
2023-04-21T06:12:39.098Z,27.4604
2023-04-21T06:13:43.656Z,27.4325
2023-04-21T06:14:47.608Z,27.4387
2023-04-21T06:15:51.538Z,27.3922
2023-04-21T06:16:55.422Z,27.3764
2023-04-21T06:17:59.343Z,27.4095
2023-04-21T06:19:03.204Z,27.4451
2023-04-21T06:20:07.085Z,27.4604
2023-04-21T07:57:55.279Z,29.1500
2023-04-21T07:58:57.342Z,28.7544
2023-04-21T07:59:59.369Z,28.8884
2023-04-21T08:01:01.445Z,28.8189
2023-04-21T08:02:03.535Z,28.6176
2023-04-21T08:03:05.699Z,28.7226
2023-04-21T08:04:07.767Z,28.7118
2023-04-21T09:09:47.399Z,27.8837
2023-04-21T09:10:49.423Z,25.4747
2023-04-21T09:11:51.479Z,23.8261
2023-04-21T09:12:53.549Z,22.9104
2023-04-21T09:13:55.619Z,22.3652
2023-04-21T09:14:57.630Z,21.6283
2023-04-21T09:15:59.709Z,21.1994
2023-04-21T09:17:01.797Z,22.0045
2023-04-21T09:18:03.827Z,23.1795
2023-04-21T09:19:05.892Z,23.8328
2023-04-21T09:20:07.887Z,24.5104
2023-04-21T09:21:09.958Z,23.8323
2023-04-21T09:22:12.044Z,23.0935
2023-04-21T09:23:14.056Z,22.4801
2023-04-21T09:24:16.086Z,21.9191
2023-04-21T09:25:18.154Z,21.4591
2023-04-21T09:26:20.232Z,21.0588
2023-04-21T09:27:22.305Z,20.6928
2023-04-21T09:28:24.317Z,20.3774
2023-04-21T09:29:26.343Z,20.0829
2023-04-21T09:30:28.414Z,19.7897
2023-04-21T09:31:30.449Z,19.5321
2023-04-21T09:32:32.549Z,19.3022
2023-04-21T09:33:39.463Z,19.0404
2023-04-21T09:34:36.593Z,18.8184
2023-04-21T09:35:38.709Z,18.6572
2023-04-21T09:36:40.704Z,19.9069
2023-04-21T09:37:42.786Z,20.9382
2023-04-21T09:38:45.714Z,22.3373
2023-04-21T09:40:02.886Z,22.2862
2023-04-21T09:40:48.969Z,20.7050
2023-04-21T09:41:52.953Z,19.4001
2023-04-21T09:42:54.300Z,18.4102
2023-04-21T09:43:56.883Z,17.8192
2023-04-21T09:45:59.266Z,17.2244
2023-04-21T09:47:01.257Z,17.1346
2023-04-21T09:48:09.864Z,23.0732
2023-04-21T09:49:05.386Z,27.6445
2023-04-21T09:50:08.986Z,26.6690
2023-04-21T09:51:28.701Z,25.3721
2023-04-21T09:52:18.661Z,26.6501
2023-04-21T09:53:13.615Z,28.9950
2023-04-21T09:54:28.561Z,29.8343
2023-04-21T09:55:17.705Z,24.8712
2023-04-21T09:56:49.092Z,22.4883
2023-04-21T09:57:50.470Z,28.6653
2023-04-21T09:58:52.538Z,34.8630
2023-04-21T09:59:54.593Z,34.5745
2023-04-21T10:00:56.626Z,29.4701
2023-04-21T10:01:58.755Z,25.3940
2023-04-21T10:03:00.916Z,23.5010
2023-04-21T10:04:03.058Z,22.8513
2023-04-21T10:05:05.038Z,37.4082
2023-04-21T10:06:07.104Z,36.6409
2023-04-21T10:07:09.011Z,35.5517
2023-04-21T10:08:11.069Z,35.7657
2023-04-21T10:09:13.135Z,35.4081
2023-04-21T10:10:15.210Z,35.2702
2023-04-21T10:11:17.216Z,34.7904
2023-04-21T10:12:19.296Z,29.4655
2023-04-21T10:13:21.364Z,30.7306
2023-04-21T10:14:23.513Z,28.7148
2023-04-21T10:15:25.474Z,32.5242
2023-04-21T10:16:27.582Z,38.7701
2023-04-21T10:17:29.638Z,40.2624
2023-04-21T10:18:31.696Z,38.1827
2023-04-21T10:19:33.700Z,38.3378
2023-04-21T10:20:35.751Z,41.9038
2023-04-21T10:21:37.811Z,35.1849
2023-04-21T10:22:39.897Z,30.0194
2023-04-21T10:23:41.952Z,29.3396
2023-04-21T10:24:44.012Z,35.8903
2023-04-21T10:25:46.072Z,42.6037
2023-04-21T10:26:48.145Z,48.3036
2023-04-21T10:27:50.196Z,53.3440
2023-04-21T10:28:52.259Z,53.6588
2023-04-21T10:29:57.028Z,44.5692
2023-04-21T10:30:56.373Z,46.7519
2023-04-21T10:31:58.440Z,51.9424
2023-04-21T10:33:00.560Z,56.6470
2023-04-21T10:34:02.556Z,60.6569
2023-04-21T10:35:04.594Z,60.6186
2023-04-21T10:36:06.651Z,48.3695
2023-04-21T10:37:08.682Z,47.1085
2023-04-21T10:38:10.752Z,52.2372
2023-04-21T10:39:12.836Z,56.9676
2023-04-21T10:40:14.903Z,61.0219
2023-04-21T10:41:16.938Z,63.2064
2023-04-21T10:42:18.978Z,52.3488
2023-04-21T10:43:21.034Z,45.5835
2023-04-21T10:44:23.092Z,49.9967
2023-04-21T10:45:25.149Z,55.0036
2023-04-21T10:46:27.255Z,59.3940
2023-04-21T10:47:29.290Z,62.8990
2023-04-21T10:48:31.318Z,57.4341
2023-04-21T10:49:33.391Z,46.9984
2023-04-21T10:50:37.459Z,50.0310
2023-04-21T10:51:37.521Z,55.0417
2023-04-21T10:52:39.572Z,59.3272
2023-04-21T10:53:41.601Z,62.8304
2023-04-21T10:54:43.684Z,60.9369
2023-04-21T10:55:45.725Z,47.4626
2023-04-21T10:56:47.791Z,45.1989
2023-04-21T10:57:49.862Z,50.4153
2023-04-21T10:58:51.898Z,55.2669
2023-04-21T10:59:53.928Z,59.5425
2023-04-21T11:00:56.123Z,62.4692
2023-04-21T11:01:58.064Z,53.4105
2023-04-21T11:03:00.272Z,46.1766
2023-04-21T11:04:02.412Z,50.4740
2023-04-21T11:05:04.269Z,55.3112
2023-04-21T11:06:06.247Z,59.5113
2023-04-21T11:07:08.352Z,62.9236
2023-04-21T11:08:10.375Z,57.8917
2023-04-21T11:09:12.452Z,46.6134
2023-04-21T11:10:14.476Z,49.0481
2023-04-21T11:11:16.560Z,54.1872
2023-04-21T11:12:18.590Z,58.6117
2023-04-21T11:13:20.622Z,62.1954
2023-04-21T11:14:22.747Z,61.5383
2023-04-21T11:15:24.746Z,49.8007
2023-04-21T11:16:26.824Z,50.0493
2023-04-21T11:17:28.882Z,54.8264
2023-04-21T11:18:30.893Z,59.0378
2023-04-21T11:19:32.944Z,62.4907
2023-04-21T11:20:35.009Z,63.0174
2023-04-21T11:21:37.044Z,50.2412
2023-04-21T11:22:39.107Z,41.5601
2023-04-21T11:23:41.154Z,45.5914
2023-04-21T11:24:43.233Z,51.1097
2023-04-21T11:25:45.276Z,55.8495
2023-04-21T11:26:47.370Z,59.9244
2023-04-21T11:27:49.380Z,59.0546
2023-04-21T11:28:51.424Z,46.9419
2023-04-21T11:29:53.469Z,46.3553
2023-04-21T11:30:55.547Z,51.6490
2023-04-21T11:31:57.575Z,56.2912
2023-04-21T11:32:59.707Z,60.1809
2023-04-21T11:34:01.706Z,52.3792
2023-04-21T11:35:03.774Z,41.0978
2023-04-21T11:36:05.809Z,38.4268
2023-04-21T11:37:07.857Z,43.6683
2023-04-21T11:38:09.908Z,44.1321
2023-04-21T11:39:11.982Z,41.4673
2023-04-21T11:40:14.020Z,40.8870
2023-04-21T11:41:16.054Z,38.9328
2023-04-21T11:42:18.131Z,37.0724
2023-04-21T11:43:20.167Z,38.3644
2023-04-21T11:44:22.266Z,37.4089
2023-04-21T11:45:24.266Z,37.1479
2023-04-21T11:46:26.380Z,34.1466
2023-04-21T11:47:28.454Z,33.2651
2023-04-21T11:48:30.449Z,34.6500
2023-04-21T11:49:32.500Z,39.6690
2023-04-21T11:50:34.598Z,43.9801
2023-04-21T11:51:36.661Z,49.4651
2023-04-21T11:55:30.553Z,40.9093
2023-04-21T11:56:29.656Z,39.7714
2023-04-21T11:57:31.705Z,41.3458
2023-04-21T11:58:33.767Z,40.5563
2023-04-21T11:59:35.855Z,39.8710
2023-04-21T12:00:37.884Z,35.3668
2023-04-21T12:01:39.919Z,30.0273
2023-04-21T12:02:42.071Z,26.8915
2023-04-21T12:03:44.276Z,28.5215
2023-04-21T12:04:46.352Z,36.0651
2023-04-21T12:05:48.154Z,42.6171
2023-04-21T12:06:50.191Z,47.7654
2023-04-21T12:07:52.312Z,52.4340
2023-04-21T12:08:54.323Z,50.9654
2023-04-21T12:09:56.356Z,47.0520
2023-04-21T12:10:58.412Z,51.7131
2023-04-21T12:12:00.462Z,55.6925
2023-04-21T12:13:02.543Z,59.3545
2023-04-21T12:14:04.590Z,62.5421
2023-04-21T12:15:06.662Z,55.8017
2023-04-21T12:16:08.734Z,44.6962
2023-04-21T12:17:10.751Z,47.6336
2023-04-21T12:18:12.865Z,53.2430
2023-04-21T12:19:14.862Z,58.1057
2023-04-21T12:20:16.905Z,61.8643
2023-04-21T12:21:18.984Z,50.3438
2023-04-21T12:22:21.020Z,39.9292
2023-04-21T12:23:23.055Z,35.5417
2023-04-21T12:24:25.144Z,36.1019
2023-04-21T12:25:27.186Z,41.7218
2023-04-21T12:26:29.215Z,45.6285
2023-04-21T12:27:31.288Z,51.8955
2023-04-21T12:28:33.317Z,56.6149
2023-04-21T12:29:35.367Z,56.0840
2023-04-21T12:30:40.124Z,44.6005
2023-04-21T12:31:39.536Z,40.2385
2023-04-21T12:32:41.631Z,37.8040
2023-04-21T12:33:43.698Z,31.4994
2023-04-21T12:34:45.681Z,33.0946
2023-04-21T12:35:47.699Z,41.8135
2023-04-21T12:36:52.564Z,47.3281
2023-04-21T12:37:51.842Z,53.2797
2023-04-21T12:38:53.863Z,58.1535
2023-04-21T12:39:55.936Z,58.9332
2023-04-21T12:40:57.981Z,41.6800
2023-04-21T12:42:00.038Z,46.1064
2023-04-21T12:43:02.131Z,53.6458
2023-04-21T12:44:04.147Z,58.3888
2023-04-21T12:45:06.302Z,59.2778
2023-04-21T12:46:08.276Z,47.0316
2023-04-21T12:47:10.310Z,36.9063
2023-04-21T12:48:12.496Z,37.4791
2023-04-21T12:49:14.473Z,44.5082
2023-04-21T12:50:16.501Z,50.6261
2023-04-21T12:51:18.539Z,55.6138
2023-04-21T12:52:20.622Z,59.1960
2023-04-21T12:53:22.651Z,52.8554
2023-04-21T12:54:24.729Z,50.9743
2023-04-21T12:55:26.798Z,55.4788
2023-04-21T12:56:28.822Z,58.8441
2023-04-21T12:57:30.897Z,58.0616
2023-04-21T12:58:32.945Z,39.7304
2023-04-21T13:02:32.453Z,34.9689
2023-04-21T13:03:34.509Z,31.7695
2023-04-21T13:04:37.218Z,27.6965
2023-04-21T13:05:39.498Z,29.0785
2023-04-21T13:06:43.421Z,37.1487
2023-04-21T13:07:47.312Z,44.5262
2023-04-21T13:08:51.198Z,50.6265
2023-04-21T13:09:55.109Z,55.6887
2023-04-21T13:10:59.017Z,46.3706
2023-04-21T13:12:02.878Z,39.6183
2023-04-21T13:13:06.787Z,38.8234
2023-04-21T13:14:10.717Z,38.2277
2023-04-21T13:15:14.578Z,37.6073
2023-04-21T13:16:18.513Z,37.1109
2023-04-21T13:17:22.452Z,36.5981
2023-04-21T13:18:26.439Z,36.3415
2023-04-21T13:19:30.614Z,36.2675
2023-04-21T13:20:34.599Z,36.2396
2023-04-21T13:21:38.509Z,36.3046
